Harrow, United Kingdom
Current Conditions -  °F | °C
As of 1:50 PM on Thursday 29 Jan 2015 (Local Time) from EGWU Reporting Station
Broken Clouds Broken Clouds  
Wind Chill: 34°   Ceiling: 4500
Heat Index: 43°   Visibility: 6mi
Dew Point: 32°   Wind: 20mph
Humidity: 66%   Direction: 250°WSW
Pressure: 28.91"   Gusts: NA
Location:  51.58°N, 0.33°W
Report Text: EGWU 291350Z 25017KT 9999 SCT028 BKN045 06/00 Q0979 TEMPO 7000 -SHRASN BKN024
Loading
Personal Weather Stations






























Interactive Weather Map New forecast layout! Learn more

10-Day Weather Forecast

Advertisements
Track Severe Weather on mobile